sensor_id;sensor_type;location;lat;lon;timestamp;pressure;altitude;pressure_sealevel;temperature;humidity
8229;BME280;4155;50.118;8.714;2022-08-18T00:01:04;99633.44;;;22.33;59.87
8229;BME280;4155;50.118;8.714;2022-08-18T00:03:32;99635.41;;;22.27;60.76
8229;BME280;4155;50.118;8.714;2022-08-18T00:06:20;99639.81;;;22.23;60.67
8229;BME280;4155;50.118;8.714;2022-08-18T00:08:48;99631.34;;;22.25;60.31
8229;BME280;4155;50.118;8.714;2022-08-18T00:11:20;99628.84;;;22.28;60.19
8229;BME280;4155;50.118;8.714;2022-08-18T00:13:47;99629.94;;;22.27;60.28
8229;BME280;4155;50.118;8.714;2022-08-18T00:16:15;99636.16;;;22.38;60.55
8229;BME280;4155;50.118;8.714;2022-08-18T00:18:43;99639.19;;;22.31;60.12
8229;BME280;4155;50.118;8.714;2022-08-18T00:21:11;99644.72;;;22.21;60.91
8229;BME280;4155;50.118;8.714;2022-08-18T00:23:38;99644.78;;;22.16;61.38
8229;BME280;4155;50.118;8.714;2022-08-18T00:26:06;99644.25;;;22.09;61.35
8229;BME280;4155;50.118;8.714;2022-08-18T00:28:35;99646.72;;;22.05;61.36
8229;BME280;4155;50.118;8.714;2022-08-18T00:31:04;99659.00;;;22.08;61.49
8229;BME280;4155;50.118;8.714;2022-08-18T00:33:32;99653.00;;;22.06;61.75
8229;BME280;4155;50.118;8.714;2022-08-18T00:35:59;99645.91;;;22.05;61.82
8229;BME280;4155;50.118;8.714;2022-08-18T00:38:27;99653.84;;;22.01;61.87
8229;BME280;4155;50.118;8.714;2022-08-18T00:40:55;99659.56;;;22.05;62.18
8229;BME280;4155;50.118;8.714;2022-08-18T00:43:27;99659.31;;;22.06;62.34
8229;BME280;4155;50.118;8.714;2022-08-18T00:45:58;99662.03;;;22.06;62.37
8229;BME280;4155;50.118;8.714;2022-08-18T00:48:27;99658.75;;;22.04;62.74
8229;BME280;4155;50.118;8.714;2022-08-18T00:50:57;99653.84;;;22.06;62.47
8229;BME280;4155;50.118;8.714;2022-08-18T00:53:28;99649.72;;;22.14;62.46
8229;BME280;4155;50.118;8.714;2022-08-18T00:56:02;99653.78;;;22.16;62.51
8229;BME280;4155;50.118;8.714;2022-08-18T00:58:36;99659.19;;;22.21;62.68
8229;BME280;4155;50.118;8.714;2022-08-18T01:01:07;99671.50;;;22.24;62.39
8229;BME280;4155;50.118;8.714;2022-08-18T01:03:37;99674.25;;;22.24;62.51
8229;BME280;4155;50.118;8.714;2022-08-18T01:06:10;99678.31;;;22.27;62.46
8229;BME280;4155;50.118;8.714;2022-08-18T01:08:40;99677.75;;;22.30;62.61
8229;BME280;4155;50.118;8.714;2022-08-18T01:11:08;99684.25;;;22.39;62.17
8229;BME280;4155;50.118;8.714;2022-08-18T01:13:38;99689.19;;;22.37;62.43
8229;BME280;4155;50.118;8.714;2022-08-18T01:16:09;99696.03;;;22.34;62.22
8229;BME280;4155;50.118;8.714;2022-08-18T01:18:54;99699.03;;;22.33;62.57
8229;BME280;4155;50.118;8.714;2022-08-18T01:21:42;99706.69;;;22.31;62.65
8229;BME280;4155;50.118;8.714;2022-08-18T01:24:19;99697.16;;;22.28;62.67
8229;BME280;4155;50.118;8.714;2022-08-18T01:27:10;99695.75;;;22.31;62.40
8229;BME280;4155;50.118;8.714;2022-08-18T01:29:40;99693.03;;;22.31;62.46
8229;BME280;4155;50.118;8.714;2022-08-18T01:32:09;99700.63;;;22.39;62.09
8229;BME280;4155;50.118;8.714;2022-08-18T01:34:38;99705.28;;;22.38;62.43
8229;BME280;4155;50.118;8.714;2022-08-18T01:37:05;99692.44;;;22.39;62.33
8229;BME280;4155;50.118;8.714;2022-08-18T01:39:34;99696.22;;;22.43;62.14
8229;BME280;4155;50.118;8.714;2022-08-18T01:42:24;99688.31;;;22.41;61.82
8229;BME280;4155;50.118;8.714;2022-08-18T01:44:51;99683.13;;;22.45;62.38
8229;BME280;4155;50.118;8.714;2022-08-18T01:47:19;99690.22;;;22.46;62.63
8229;BME280;4155;50.118;8.714;2022-08-18T01:49:47;99690.22;;;22.46;62.51
8229;BME280;4155;50.118;8.714;2022-08-18T01:52:16;99683.97;;;22.40;62.69
8229;BME280;4155;50.118;8.714;2022-08-18T01:54:48;99682.91;;;22.36;63.08
8229;BME280;4155;50.118;8.714;2022-08-18T01:57:17;99673.03;;;22.40;62.75
8229;BME280;4155;50.118;8.714;2022-08-18T01:59:46;99664.06;;;22.35;63.44
8229;BME280;4155;50.118;8.714;2022-08-18T02:02:17;99665.94;;;22.39;63.48
8229;BME280;4155;50.118;8.714;2022-08-18T02:04:50;99673.88;;;22.36;63.46
8229;BME280;4155;50.118;8.714;2022-08-18T02:07:20;99680.47;;;22.30;63.66
8229;BME280;4155;50.118;8.714;2022-08-18T02:09:57;99686.22;;;22.28;63.39
8229;BME280;4155;50.118;8.714;2022-08-18T02:12:25;99693.09;;;22.20;63.97
8229;BME280;4155;50.118;8.714;2022-08-18T02:14:52;99703.78;;;22.17;63.82
8229;BME280;4155;50.118;8.714;2022-08-18T02:17:20;99707.34;;;22.12;64.57
8229;BME280;4155;50.118;8.714;2022-08-18T02:19:48;99696.16;;;22.04;64.43
8229;BME280;4155;50.118;8.714;2022-08-18T02:22:18;99688.78;;;22.09;64.53
8229;BME280;4155;50.118;8.714;2022-08-18T02:24:46;99701.34;;;22.00;64.76
8229;BME280;4155;50.118;8.714;2022-08-18T02:27:16;99700.28;;;21.96;64.83
8229;BME280;4155;50.118;8.714;2022-08-18T02:29:44;99698.69;;;21.85;64.83
8229;BME280;4155;50.118;8.714;2022-08-18T02:32:12;99703.63;;;21.83;64.76
8229;BME280;4155;50.118;8.714;2022-08-18T02:34:40;99695.72;;;21.76;64.91
8229;BME280;4155;50.118;8.714;2022-08-18T02:37:08;99692.72;;;21.73;65.52
8229;BME280;4155;50.118;8.714;2022-08-18T02:39:41;99699.53;;;21.75;65.40
8229;BME280;4155;50.118;8.714;2022-08-18T02:42:09;99693.81;;;21.66;65.12
8229;BME280;4155;50.118;8.714;2022-08-18T02:44:38;99690.31;;;21.61;65.20
8229;BME280;4155;50.118;8.714;2022-08-18T02:47:06;99688.94;;;21.58;65.26
8229;BME280;4155;50.118;8.714;2022-08-18T02:49:33;99685.09;;;21.64;65.40
8229;BME280;4155;50.118;8.714;2022-08-18T02:52:03;99687.25;;;21.67;65.24
8229;BME280;4155;50.118;8.714;2022-08-18T02:54:31;99692.44;;;21.69;64.77
8229;BME280;4155;50.118;8.714;2022-08-18T02:56:59;99686.19;;;21.63;64.50
8229;BME280;4155;50.118;8.714;2022-08-18T02:59:32;99686.75;;;21.55;65.58
8229;BME280;4155;50.118;8.714;2022-08-18T03:02:01;99686.22;;;21.53;65.38
8229;BME280;4155;50.118;8.714;2022-08-18T03:04:30;99692.25;;;21.50;65.28
8229;BME280;4155;50.118;8.714;2022-08-18T03:06:59;99689.81;;;21.49;65.33
8229;BME280;4155;50.118;8.714;2022-08-18T03:09:28;99692.53;;;21.49;65.86
8229;BME280;4155;50.118;8.714;2022-08-18T03:11:56;99693.88;;;21.46;66.01
8229;BME280;4155;50.118;8.714;2022-08-18T03:14:24;99688.16;;;21.43;65.99
8229;BME280;4155;50.118;8.714;2022-08-18T03:16:53;99694.16;;;21.50;66.09
8229;BME280;4155;50.118;8.714;2022-08-18T03:19:24;99699.56;;;21.65;65.63
8229;BME280;4155;50.118;8.714;2022-08-18T03:21:55;99699.28;;;21.66;66.46
8229;BME280;4155;50.118;8.714;2022-08-18T03:24:29;99692.44;;;21.69;66.37
8229;BME280;4155;50.118;8.714;2022-08-18T03:26:59;99697.91;;;21.74;66.63
8229;BME280;4155;50.118;8.714;2022-08-18T03:29:28;99700.09;;;21.72;66.67
8229;BME280;4155;50.118;8.714;2022-08-18T03:31:59;99694.91;;;21.71;67.09
8229;BME280;4155;50.118;8.714;2022-08-18T03:34:31;99691.63;;;21.69;67.02
8229;BME280;4155;50.118;8.714;2022-08-18T03:36:59;99684.00;;;21.71;67.06
8229;BME280;4155;50.118;8.714;2022-08-18T03:39:27;99694.38;;;21.63;67.16
8229;BME280;4155;50.118;8.714;2022-08-18T03:41:56;99696.56;;;21.66;67.83
8229;BME280;4155;50.118;8.714;2022-08-18T03:44:29;99698.47;;;21.66;67.64
8229;BME280;4155;50.118;8.714;2022-08-18T03:46:57;99698.78;;;21.59;67.63
8229;BME280;4155;50.118;8.714;2022-08-18T03:49:25;99691.94;;;21.57;68.08
8229;BME280;4155;50.118;8.714;2022-08-18T03:51:55;99694.38;;;21.58;68.25
8229;BME280;4155;50.118;8.714;2022-08-18T03:54:25;99691.66;;;21.63;68.21
8229;BME280;4155;50.118;8.714;2022-08-18T03:56:53;99694.63;;;21.67;68.33
8229;BME280;4155;50.118;8.714;2022-08-18T03:59:23;99695.47;;;21.73;68.38
8229;BME280;4155;50.118;8.714;2022-08-18T04:01:52;99695.47;;;21.73;68.31
8229;BME280;4155;50.118;8.714;2022-08-18T04:04:23;99692.41;;;21.79;68.01
8229;BME280;4155;50.118;8.714;2022-08-18T04:06:52;99694.28;;;21.94;67.93
8229;BME280;4155;50.118;8.714;2022-08-18T04:09:22;99695.13;;;21.84;67.88
8229;BME280;4155;50.118;8.714;2022-08-18T04:11:51;99694.56;;;21.92;67.44
8229;BME280;4155;50.118;8.714;2022-08-18T04:14:21;99690.75;;;21.93;67.17
8229;BME280;4155;50.118;8.714;2022-08-18T04:16:50;99682.28;;;21.90;67.58
8229;BME280;4155;50.118;8.714;2022-08-18T04:19:18;99685.31;;;21.78;67.99
8229;BME280;4155;50.118;8.714;2022-08-18T04:21:54;99686.94;;;21.79;68.43
8229;BME280;4155;50.118;8.714;2022-08-18T04:24:26;99693.78;;;21.82;68.35
8229;BME280;4155;50.118;8.714;2022-08-18T04:26:59;99691.88;;;21.77;68.41
8229;BME280;4155;50.118;8.714;2022-08-18T04:29:27;99683.16;;;21.75;68.90
8229;BME280;4155;50.118;8.714;2022-08-18T04:31:55;99681.78;;;21.83;68.44
8229;BME280;4155;50.118;8.714;2022-08-18T04:34:23;99688.00;;;21.88;68.18
8229;BME280;4155;50.118;8.714;2022-08-18T04:36:51;99679.00;;;21.88;68.48
8229;BME280;4155;50.118;8.714;2022-08-18T04:39:21;99681.44;;;21.94;68.62
8229;BME280;4155;50.118;8.714;2022-08-18T04:41:51;99680.91;;;21.92;68.36
8229;BME280;4155;50.118;8.714;2022-08-18T04:44:20;99684.22;;;21.84;68.83
8229;BME280;4155;50.118;8.714;2022-08-18T04:46:50;99682.53;;;21.93;68.83
8229;BME280;4155;50.118;8.714;2022-08-18T04:49:20;99685.28;;;21.88;68.37
8229;BME280;4155;50.118;8.714;2022-08-18T04:51:49;99687.50;;;21.81;69.07
8229;BME280;4155;50.118;8.714;2022-08-18T04:54:51;99685.59;;;21.77;69.22
8229;BME280;4155;50.118;8.714;2022-08-18T04:57:21;99686.38;;;21.87;68.76
8229;BME280;4155;50.118;8.714;2022-08-18T04:59:50;99687.19;;;21.93;68.57
8229;BME280;4155;50.118;8.714;2022-08-18T05:02:20;99698.59;;;22.05;68.44
8229;BME280;4155;50.118;8.714;2022-08-18T05:04:48;99697.53;;;21.96;68.52
8229;BME280;4155;50.118;8.714;2022-08-18T05:07:18;99695.66;;;21.86;69.09
8229;BME280;4155;50.118;8.714;2022-08-18T05:09:46;99701.69;;;21.83;69.73
8229;BME280;4155;50.118;8.714;2022-08-18T05:12:14;99703.91;;;21.81;69.25
8229;BME280;4155;50.118;8.714;2022-08-18T05:14:44;99707.38;;;21.97;68.92
8229;BME280;4155;50.118;8.714;2022-08-18T05:17:13;99718.28;;;21.97;68.43
8229;BME280;4155;50.118;8.714;2022-08-18T05:19:42;99719.94;;;21.98;68.55
8229;BME280;4155;50.118;8.714;2022-08-18T05:22:13;99726.47;;;22.02;68.69
8229;BME280;4155;50.118;8.714;2022-08-18T05:24:44;99724.56;;;21.98;68.56
8229;BME280;4155;50.118;8.714;2022-08-18T05:27:12;99721.06;;;21.87;69.18
8229;BME280;4155;50.118;8.714;2022-08-18T05:29:40;99723.78;;;21.92;68.94
8229;BME280;4155;50.118;8.714;2022-08-18T05:32:13;99726.00;;;21.85;68.94
8229;BME280;4155;50.118;8.714;2022-08-18T05:35:03;99723.22;;;21.90;68.94
8229;BME280;4155;50.118;8.714;2022-08-18T05:37:35;99724.06;;;21.90;68.34
8229;BME280;4155;50.118;8.714;2022-08-18T05:40:08;99725.19;;;21.74;69.21
8229;BME280;4155;50.118;8.714;2022-08-18T05:42:39;99720.56;;;21.75;69.02
8229;BME280;4155;50.118;8.714;2022-08-18T05:45:09;99715.63;;;21.77;69.27
8229;BME280;4155;50.118;8.714;2022-08-18T05:47:39;99721.09;;;21.82;69.05
8229;BME280;4155;50.118;8.714;2022-08-18T05:50:09;99715.91;;;21.75;69.22
8229;BME280;4155;50.118;8.714;2022-08-18T05:52:41;99716.44;;;21.82;69.21
8229;BME280;4155;50.118;8.714;2022-08-18T05:55:13;99723.53;;;21.83;68.95
8229;BME280;4155;50.118;8.714;2022-08-18T05:58:02;99719.44;;;21.86;68.90
8229;BME280;4155;50.118;8.714;2022-08-18T06:00:32;99722.97;;;21.86;69.49
8229;BME280;4155;50.118;8.714;2022-08-18T06:03:07;99716.13;;;21.89;69.58
8229;BME280;4155;50.118;8.714;2022-08-18T06:05:48;99716.41;;;21.92;70.05
8229;BME280;4155;50.118;8.714;2022-08-18T06:08:22;99711.19;;;21.96;70.48
8229;BME280;4155;50.118;8.714;2022-08-18T06:10:51;99707.66;;;21.95;70.77
8229;BME280;4155;50.118;8.714;2022-08-18T06:13:20;99701.13;;;21.86;71.92
8229;BME280;4155;50.118;8.714;2022-08-18T06:15:51;99701.13;;;21.91;71.77
8229;BME280;4155;50.118;8.714;2022-08-18T06:18:35;99698.13;;;21.88;71.40
8229;BME280;4155;50.118;8.714;2022-08-18T06:24:16;99689.41;;;21.86;72.07
8229;BME280;4155;50.118;8.714;2022-08-18T06:26:53;99682.59;;;21.83;72.67
8229;BME280;4155;50.118;8.714;2022-08-18T06:29:38;99674.69;;;21.82;73.74
8229;BME280;4155;50.118;8.714;2022-08-18T06:32:17;99678.47;;;21.86;73.43
8229;BME280;4155;50.118;8.714;2022-08-18T06:35:00;99671.94;;;21.82;73.92
8229;BME280;4155;50.118;8.714;2022-08-18T06:37:34;99680.06;;;22.02;73.14
8229;BME280;4155;50.118;8.714;2022-08-18T06:40:22;99678.13;;;22.08;72.66
8229;BME280;4155;50.118;8.714;2022-08-18T06:42:50;99685.16;;;22.24;71.72
8229;BME280;4155;50.118;8.714;2022-08-18T06:45:23;99692.50;;;22.29;72.60
8229;BME280;4155;50.118;8.714;2022-08-18T06:48:10;99696.22;;;22.43;73.90
8229;BME280;4155;50.118;8.714;2022-08-18T06:50:48;99705.34;;;22.33;74.50
8229;BME280;4155;50.118;8.714;2022-08-18T06:53:16;99703.47;;;22.23;75.40
8229;BME280;4155;50.118;8.714;2022-08-18T06:55:54;99708.94;;;22.18;75.70
8229;BME280;4155;50.118;8.714;2022-08-18T06:58:26;99704.00;;;22.20;75.62
8229;BME280;4155;50.118;8.714;2022-08-18T07:00:58;99710.34;;;22.06;75.42
8229;BME280;4155;50.118;8.714;2022-08-18T07:03:42;99716.72;;;21.81;76.54
8229;BME280;4155;50.118;8.714;2022-08-18T07:06:24;99718.09;;;21.73;77.36
8229;BME280;4155;50.118;8.714;2022-08-18T07:08:55;99721.94;;;21.72;78.00
8229;BME280;4155;50.118;8.714;2022-08-18T07:11:57;99724.94;;;21.71;78.64
8229;BME280;4155;50.118;8.714;2022-08-18T07:14:25;99722.75;;;21.67;77.10
8229;BME280;4155;50.118;8.714;2022-08-18T07:17:05;99714.53;;;21.78;76.95
8229;BME280;4155;50.118;8.714;2022-08-18T07:19:33;99719.72;;;21.84;77.17
8229;BME280;4155;50.118;8.714;2022-08-18T07:22:06;99714.56;;;21.73;77.36
8229;BME280;4155;50.118;8.714;2022-08-18T07:24:38;99721.94;;;21.72;77.52
8229;BME280;4155;50.118;8.714;2022-08-18T07:27:09;99726.88;;;21.55;77.42
8229;BME280;4155;50.118;8.714;2022-08-18T07:29:40;99737.22;;;21.58;77.65
8229;BME280;4155;50.118;8.714;2022-08-18T07:32:27;99741.84;;;21.67;77.46
8229;BME280;4155;50.118;8.714;2022-08-18T07:34:58;99752.81;;;21.47;77.37
8229;BME280;4155;50.118;8.714;2022-08-18T07:37:33;99748.72;;;21.60;77.11
8229;BME280;4155;50.118;8.714;2022-08-18T07:40:06;99750.59;;;21.75;76.84
8229;BME280;4155;50.118;8.714;2022-08-18T07:42:41;99753.00;;;21.91;76.65
8229;BME280;4155;50.118;8.714;2022-08-18T07:45:31;99755.16;;;21.89;76.24
8229;BME280;4155;50.118;8.714;2022-08-18T07:48:05;99752.19;;;21.86;76.17
8229;BME280;4155;50.118;8.714;2022-08-18T07:51:00;99770.75;;;21.79;76.61
8229;BME280;4155;50.118;8.714;2022-08-18T07:53:42;99770.50;;;21.85;76.84
8229;BME280;4155;50.118;8.714;2022-08-18T07:56:31;99771.84;;;21.93;76.39
8229;BME280;4155;50.118;8.714;2022-08-18T07:59:09;99776.72;;;21.96;76.71
8229;BME280;4155;50.118;8.714;2022-08-18T08:01:46;99781.66;;;21.89;76.51
8229;BME280;4155;50.118;8.714;2022-08-18T08:04:25;99781.97;;;21.82;76.97
8229;BME280;4155;50.118;8.714;2022-08-18T08:07:01;99790.41;;;21.86;77.27
8229;BME280;4155;50.118;8.714;2022-08-18T08:10:15;99784.41;;;21.94;76.75
8229;BME280;4155;50.118;8.714;2022-08-18T08:12:49;99785.47;;;21.98;76.20
8229;BME280;4155;50.118;8.714;2022-08-18T08:15:42;99789.53;;;22.01;76.65
8229;BME280;4155;50.118;8.714;2022-08-18T08:18:18;99790.13;;;21.92;76.86
8229;BME280;4155;50.118;8.714;2022-08-18T08:20:54;99792.31;;;21.85;76.47
8229;BME280;4155;50.118;8.714;2022-08-18T08:23:27;99792.59;;;21.94;75.86
8229;BME280;4155;50.118;8.714;2022-08-18T08:29:06;99792.56;;;22.09;75.20
8229;BME280;4155;50.118;8.714;2022-08-18T08:31:45;99798.56;;;22.16;75.33
8229;BME280;4155;50.118;8.714;2022-08-18T08:34:17;99802.59;;;22.34;74.22
8229;BME280;4155;50.118;8.714;2022-08-18T08:36:47;99803.38;;;22.40;74.82
8229;BME280;4155;50.118;8.714;2022-08-18T08:39:20;99807.66;;;22.61;73.45
8229;BME280;4155;50.118;8.714;2022-08-18T08:41:54;99809.16;;;22.83;72.34
8229;BME280;4155;50.118;8.714;2022-08-18T08:44:48;99805.91;;;22.86;72.72
8229;BME280;4155;50.118;8.714;2022-08-18T08:47:29;99809.28;;;23.12;72.01
8229;BME280;4155;50.118;8.714;2022-08-18T08:50:02;99804.56;;;23.22;71.04
8229;BME280;4155;50.118;8.714;2022-08-18T08:52:34;99809.28;;;23.46;69.95
8229;BME280;4155;50.118;8.714;2022-08-18T08:55:08;99812.03;;;23.46;70.02
8229;BME280;4155;50.118;8.714;2022-08-18T08:57:42;99814.13;;;23.59;70.22
8229;BME280;4155;50.118;8.714;2022-08-18T09:00:13;99796.75;;;23.74;70.33
8229;BME280;4155;50.118;8.714;2022-08-18T09:03:15;99805.53;;;23.71;69.20
8229;BME280;4155;50.118;8.714;2022-08-18T09:06:05;99803.59;;;23.08;70.97
8229;BME280;4155;50.118;8.714;2022-08-18T09:09:04;99798.19;;;23.32;69.81
8229;BME280;4155;50.118;8.714;2022-08-18T09:11:52;99785.94;;;23.58;69.11
8229;BME280;4155;50.118;8.714;2022-08-18T09:14:40;99794.41;;;23.57;69.12
8229;BME280;4155;50.118;8.714;2022-08-18T09:17:32;99800.16;;;23.60;68.61
8229;BME280;4155;50.118;8.714;2022-08-18T09:20:20;99790.28;;;23.30;69.18
8229;BME280;4155;50.118;8.714;2022-08-18T09:22:55;99797.78;;;23.15;69.69
8229;BME280;4155;50.118;8.714;2022-08-18T09:25:45;99790.56;;;23.29;69.05
8229;BME280;4155;50.118;8.714;2022-08-18T09:28:15;99788.44;;;23.50;68.63
8229;BME280;4155;50.118;8.714;2022-08-18T09:30:52;99787.31;;;23.56;67.88
8229;BME280;4155;50.118;8.714;2022-08-18T09:33:33;99786.25;;;23.52;68.98
8229;BME280;4155;50.118;8.714;2022-08-18T09:36:30;99780.16;;;23.60;68.45
8229;BME280;4155;50.118;8.714;2022-08-18T09:39:09;99776.81;;;23.92;67.55
8229;BME280;4155;50.118;8.714;2022-08-18T09:42:07;99779.13;;;24.33;66.41
8229;BME280;4155;50.118;8.714;2022-08-18T09:44:58;99772.69;;;24.42;66.38
8229;BME280;4155;50.118;8.714;2022-08-18T09:50:54;99789.25;;;24.94;63.74
8229;BME280;4155;50.118;8.714;2022-08-18T10:06:22;99777.63;;;25.21;61.54
8229;BME280;4155;50.118;8.714;2022-08-18T10:09:16;99784.66;;;25.08;60.97
8229;BME280;4155;50.118;8.714;2022-08-18T10:12:40;99787.03;;;25.33;60.90
8229;BME280;4155;50.118;8.714;2022-08-18T10:15:33;99773.88;;;25.30;60.87
8229;BME280;4155;50.118;8.714;2022-08-18T10:18:17;99769.75;;;25.33;61.15
8229;BME280;4155;50.118;8.714;2022-08-18T10:20:58;99777.47;;;25.31;60.40
8229;BME280;4155;50.118;8.714;2022-08-18T10:23:50;99783.53;;;25.28;60.15
8229;BME280;4155;50.118;8.714;2022-08-18T10:27:06;99780.84;;;25.42;60.09
8229;BME280;4155;50.118;8.714;2022-08-18T10:29:53;99789.53;;;25.30;61.00
8229;BME280;4155;50.118;8.714;2022-08-18T10:32:35;99782.69;;;25.14;60.32
8229;BME280;4155;50.118;8.714;2022-08-18T10:35:05;99781.47;;;25.20;60.77
8229;BME280;4155;50.118;8.714;2022-08-18T10:38:00;99784.59;;;25.32;60.43
8229;BME280;4155;50.118;8.714;2022-08-18T10:40:29;99791.84;;;25.42;60.37
8229;BME280;4155;50.118;8.714;2022-08-18T10:43:06;99792.28;;;25.30;61.35
8229;BME280;4155;50.118;8.714;2022-08-18T10:45:56;99790.69;;;25.10;62.16
8229;BME280;4155;50.118;8.714;2022-08-18T10:48:56;99784.53;;;24.99;62.54
8229;BME280;4155;50.118;8.714;2022-08-18T10:51:49;99788.66;;;24.97;61.64
8229;BME280;4155;50.118;8.714;2022-08-18T10:54:34;99807.00;;;25.20;60.72
8229;BME280;4155;50.118;8.714;2022-08-18T10:57:25;99794.75;;;24.94;60.71
8229;BME280;4155;50.118;8.714;2022-08-18T11:00:01;99780.66;;;24.81;61.85
8229;BME280;4155;50.118;8.714;2022-08-18T11:05:44;99776.53;;;25.03;61.46
8229;BME280;4155;50.118;8.714;2022-08-18T11:08:14;99762.72;;;24.70;62.09
8229;BME280;4155;50.118;8.714;2022-08-18T11:10:48;99759.06;;;24.56;62.44
8229;BME280;4155;50.118;8.714;2022-08-18T11:13:46;99761.53;;;24.58;63.01
8229;BME280;4155;50.118;8.714;2022-08-18T11:16:28;99762.16;;;24.31;63.43
8229;BME280;4155;50.118;8.714;2022-08-18T11:19:05;99759.94;;;24.33;63.09
8229;BME280;4155;50.118;8.714;2022-08-18T11:21:39;99750.91;;;24.32;62.83
8229;BME280;4155;50.118;8.714;2022-08-18T11:24:13;99761.31;;;24.35;62.10
8229;BME280;4155;50.118;8.714;2022-08-18T11:26:46;99769.03;;;24.28;62.64
8229;BME280;4155;50.118;8.714;2022-08-18T11:29:22;99765.63;;;24.12;62.61
8229;BME280;4155;50.118;8.714;2022-08-18T11:31:53;99762.56;;;24.19;62.93
8229;BME280;4155;50.118;8.714;2022-08-18T11:34:33;99743.59;;;24.22;62.81
8229;BME280;4155;50.118;8.714;2022-08-18T11:37:04;99733.81;;;24.59;62.28
8229;BME280;4155;50.118;8.714;2022-08-18T11:39:42;99723.19;;;24.90;61.08
8229;BME280;4155;50.118;8.714;2022-08-18T11:42:17;99706.69;;;25.74;58.63
8229;BME280;4155;50.118;8.714;2022-08-18T11:44:53;99692.78;;;26.20;57.48
8229;BME280;4155;50.118;8.714;2022-08-18T11:47:21;99690.19;;;26.51;55.76
8229;BME280;4155;50.118;8.714;2022-08-18T11:49:57;99682.72;;;26.88;55.62
8229;BME280;4155;50.118;8.714;2022-08-18T11:52:29;99685.34;;;26.71;54.31
8229;BME280;4155;50.118;8.714;2022-08-18T11:55:04;99696.28;;;26.85;54.63
8229;BME280;4155;50.118;8.714;2022-08-18T11:57:50;99699.56;;;27.09;53.76
8229;BME280;4155;50.118;8.714;2022-08-18T12:00:52;99697.03;;;27.52;53.06
8229;BME280;4155;50.118;8.714;2022-08-18T12:03:28;99691.38;;;27.80;52.11
8229;BME280;4155;50.118;8.714;2022-08-18T12:05:58;99692.84;;;27.94;51.37
8229;BME280;4155;50.118;8.714;2022-08-18T12:08:55;99687.47;;;27.81;50.60
8229;BME280;4155;50.118;8.714;2022-08-18T12:11:27;99683.13;;;27.88;51.18
8229;BME280;4155;50.118;8.714;2022-08-18T12:14:00;99669.38;;;28.14;50.11
8229;BME280;4155;50.118;8.714;2022-08-18T12:16:48;99658.84;;;27.99;49.91
8229;BME280;4155;50.118;8.714;2022-08-18T12:19:20;99654.84;;;27.65;50.46
8229;BME280;4155;50.118;8.714;2022-08-18T12:21:52;99648.59;;;27.12;51.81
8229;BME280;4155;50.118;8.714;2022-08-18T12:24:23;99649.19;;;27.08;51.83
8229;BME280;4155;50.118;8.714;2022-08-18T12:26:55;99654.13;;;26.98;52.68
8229;BME280;4155;50.118;8.714;2022-08-18T12:29:27;99664.41;;;27.06;51.31
8229;BME280;4155;50.118;8.714;2022-08-18T12:32:09;99660.94;;;26.56;51.27
8229;BME280;4155;50.118;8.714;2022-08-18T12:34:57;99661.19;;;26.32;52.44
8229;BME280;4155;50.118;8.714;2022-08-18T12:37:33;99655.41;;;26.69;51.86
8229;BME280;4155;50.118;8.714;2022-08-18T12:40:21;99641.91;;;27.04;51.83
8229;BME280;4155;50.118;8.714;2022-08-18T12:42:49;99652.13;;;26.67;51.48
8229;BME280;4155;50.118;8.714;2022-08-18T12:45:19;99654.28;;;26.70;51.84
8229;BME280;4155;50.118;8.714;2022-08-18T12:47:46;99645.69;;;26.94;51.43
8229;BME280;4155;50.118;8.714;2022-08-18T12:50:14;99645.00;;;27.11;50.12
8229;BME280;4155;50.118;8.714;2022-08-18T12:52:42;99634.81;;;27.51;50.33
8229;BME280;4155;50.118;8.714;2022-08-18T12:55:10;99636.88;;;27.85;49.38
8229;BME280;4155;50.118;8.714;2022-08-18T12:57:47;99635.13;;;27.89;48.10
8229;BME280;4155;50.118;8.714;2022-08-18T13:00:20;99640.84;;;28.10;46.91
8229;BME280;4155;50.118;8.714;2022-08-18T13:02:54;99635.84;;;28.38;48.50
8229;BME280;4155;50.118;8.714;2022-08-18T13:05:42;99642.84;;;28.53;47.88
8229;BME280;4155;50.118;8.714;2022-08-18T13:08:16;99638.13;;;28.36;47.91
8229;BME280;4155;50.118;8.714;2022-08-18T13:10:56;99635.47;;;27.88;48.60
8229;BME280;4155;50.118;8.714;2022-08-18T13:13:46;99630.22;;;27.69;48.91
8229;BME280;4155;50.118;8.714;2022-08-18T13:16:23;99623.25;;;27.72;48.80
8229;BME280;4155;50.118;8.714;2022-08-18T13:19:05;99625.22;;;27.09;51.15
8229;BME280;4155;50.118;8.714;2022-08-18T13:21:36;99612.59;;;27.08;49.89
8229;BME280;4155;50.118;8.714;2022-08-18T13:24:07;99611.03;;;27.16;49.66
8229;BME280;4155;50.118;8.714;2022-08-18T13:26:40;99608.91;;;27.61;48.35
8229;BME280;4155;50.118;8.714;2022-08-18T13:29:12;99616.63;;;27.81;49.21
8229;BME280;4155;50.118;8.714;2022-08-18T13:31:45;99610.53;;;27.62;49.28
8229;BME280;4155;50.118;8.714;2022-08-18T13:34:24;99609.63;;;27.75;47.69
8229;BME280;4155;50.118;8.714;2022-08-18T13:36:55;99602.22;;;27.93;47.81
8229;BME280;4155;50.118;8.714;2022-08-18T13:39:23;99612.13;;;28.11;47.63
8229;BME280;4155;50.118;8.714;2022-08-18T13:42:02;99612.28;;;27.98;47.98
8229;BME280;4155;50.118;8.714;2022-08-18T13:44:50;99605.34;;;27.60;47.96
8229;BME280;4155;50.118;8.714;2022-08-18T13:47:23;99599.75;;;27.65;47.54
8229;BME280;4155;50.118;8.714;2022-08-18T13:49:55;99602.06;;;27.98;47.06
8229;BME280;4155;50.118;8.714;2022-08-18T13:52:25;99597.19;;;27.86;47.17
8229;BME280;4155;50.118;8.714;2022-08-18T13:55:07;99588.44;;;28.02;47.27
8229;BME280;4155;50.118;8.714;2022-08-18T13:57:39;99594.75;;;27.93;48.35
8229;BME280;4155;50.118;8.714;2022-08-18T14:00:17;99596.06;;;28.13;48.13
8229;BME280;4155;50.118;8.714;2022-08-18T14:02:58;99599.16;;;28.20;48.20
8229;BME280;4155;50.118;8.714;2022-08-18T14:05:29;99605.97;;;28.58;47.37
8229;BME280;4155;50.118;8.714;2022-08-18T14:08:16;99591.84;;;28.68;45.85
8229;BME280;4155;50.118;8.714;2022-08-18T14:10:46;99585.00;;;28.83;44.78
8229;BME280;4155;50.118;8.714;2022-08-18T14:13:16;99586.31;;;28.76;45.52
8229;BME280;4155;50.118;8.714;2022-08-18T14:15:51;99583.69;;;28.80;44.98
8229;BME280;4155;50.118;8.714;2022-08-18T14:18:23;99585.31;;;28.81;44.19
8229;BME280;4155;50.118;8.714;2022-08-18T14:20:56;99577.09;;;28.46;44.77
8229;BME280;4155;50.118;8.714;2022-08-18T14:23:48;99572.25;;;28.09;46.10
8229;BME280;4155;50.118;8.714;2022-08-18T14:26:39;99576.09;;;28.68;45.26
8229;BME280;4155;50.118;8.714;2022-08-18T14:29:17;99569.16;;;28.53;45.17
8229;BME280;4155;50.118;8.714;2022-08-18T14:32:05;99555.97;;;28.59;45.36